< < Back
Terminal Aerodrome Forecast


Current Version              Previous Versions:   1  2  3  4  5  6  7  8  9  

Terminal Aerodrome Forecast

391
FTUS44 KMRX 232320
TAFTYS
TAF
KTYS 232320Z 2400/2424 03005KT P6SM SCT070
     FM240100 VRB03KT P6SM SKC
     FM241800 03005KT P6SM FEW250=

Latest METAR

881
SAUS80 KWBC 250000 RRB
MTRTYS
METAR KTYS 242353Z 01006KT 10SM CLR 29/15 A3005 RMK AO2 SLP164 T02890150
10333 20289 52000


USA.gov is the U.S. government's official web portal to all federal, state and local government web resources and services.